Aviation Digital Data Service (ADDS)

Output produced by METARs form (1735 UTC 20 January 2019)
found at http://www.aviationweather.gov/metar/data/
 
TAF SUCA 201130Z 2012/2112 03012KT 9999 FEW025 TX27/2018Z TN17/2109Z 
     BECMG 2016/2020 09015KT 9999 SCT026 
     TEMPO 2106/2109 3000 BR FEW010
       
TAF SUDU 201130Z 2012/2112 10008KT CAVOK TX28/2018Z TN15/2109Z 
     BECMG 2016/2020 09015KT 9999 SCT026 
     TEMPO 2106/2110 1200 BR FEW010
       
TAF SUMU 201718Z 2018/2118 13015KT 9999 BKN025 TX27/2118Z TN17/2109Z 
     BECMG 2101/2105 03010KT FEW023 
     TEMPO 2106/2109 3000 BR FEW010 
     BECMG 2110/2114 31010KT 9999 SCT025
       
TAF SUAA 201130Z 2012/2112 09006KT CAVOK TX27/2018Z TN17/2109Z 
     BECMG 2016/2020 09015KT 9999 SCT026 
     TEMPO 2106/2109 01008KT 2000 BR FEW010
       
TAF SULS 201130Z 2012/2112 05005KT 9999 FEW025 TX26/2018Z TN16/2109Z 
     BECMG 2016/2020 08015KT BKN026 
     TEMPO 2106/2109 36008KT 2500 BR FEW010
       
TAF SURV 201130Z 2012/2112 10010KT 9999 FEW020 TX26/2018Z TN15/2109Z 
     PROB30 
     TEMPO 2018/2100 8000 -RA BKN020 BKN070 
     TEMPO 2106/2110 0800 BCFG SCT010
       
TAF SUSO 201130Z 2012/2112 14008KT 9999 FEW015 BKN080 TX28/2018Z TN17/2109Z 
     PROB30 
     TEMPO 2018/2100 8000 -RA BKN020 BKN070 
     TEMPO 2106/2110 0800 BCFG SCT010